createdAt,value
2019-05-11T00:01:17.950Z,23.47
2019-05-11T00:03:44.583Z,21.00
2019-05-11T00:06:11.238Z,19.40
2019-05-11T00:08:37.894Z,19.70
2019-05-11T00:11:04.499Z,21.57
2019-05-11T00:13:31.132Z,20.27
2019-05-11T00:15:57.742Z,21.03
2019-05-11T00:18:24.364Z,19.97
2019-05-11T00:20:50.991Z,20.83
2019-05-11T00:23:17.615Z,22.53
2019-05-11T00:25:44.253Z,23.77
2019-05-11T00:28:10.885Z,24.13
2019-05-11T00:30:55.899Z,27.67
2019-05-11T00:33:22.518Z,27.47
2019-05-11T00:35:49.160Z,29.67
2019-05-11T00:38:15.770Z,32.17
2019-05-11T00:40:42.411Z,29.67
2019-05-11T00:43:09.022Z,29.17
2019-05-11T00:45:35.951Z,31.13
2019-05-11T00:48:02.570Z,29.60
2019-05-11T00:50:38.878Z,31.03
2019-05-11T00:52:57.728Z,33.53
2019-05-11T00:55:24.377Z,33.57
2019-05-11T00:57:51.001Z,31.80
2019-05-11T01:00:17.722Z,32.10
2019-05-11T01:02:44.354Z,32.43
2019-05-11T01:05:11.283Z,30.60
2019-05-11T01:07:37.939Z,29.00
2019-05-11T01:10:05.383Z,25.33
2019-05-11T01:12:32.114Z,24.53
2019-05-11T01:14:58.722Z,27.00
2019-05-11T01:17:25.362Z,25.37
2019-05-11T01:19:52.574Z,23.30
2019-05-11T01:22:19.219Z,22.53
2019-05-11T01:24:45.826Z,19.53
2019-05-11T01:27:12.695Z,17.73
2019-05-11T01:29:39.310Z,22.50
2019-05-11T01:32:05.942Z,19.63
2019-05-11T01:34:32.555Z,18.57
2019-05-11T01:36:59.191Z,18.37
2019-05-11T01:39:25.806Z,19.27
2019-05-11T01:41:52.461Z,20.73
2019-05-11T01:44:19.231Z,17.80
2019-05-11T01:46:45.853Z,17.60
2019-05-11T01:49:12.479Z,19.50
2019-05-11T01:51:39.091Z,19.07
2019-05-11T01:54:05.718Z,17.97
2019-05-11T01:56:32.722Z,19.13
2019-05-11T01:58:59.362Z,18.50
2019-05-11T02:01:25.962Z,18.97
2019-05-11T02:03:52.607Z,19.67
2019-05-11T02:06:19.581Z,19.03
2019-05-11T02:08:46.235Z,18.30
2019-05-11T02:11:15.793Z,17.80
2019-05-11T02:13:41.410Z,19.13
2019-05-11T02:16:08.122Z,17.60
2019-05-11T02:18:34.760Z,18.43
2019-05-11T02:21:01.477Z,18.60
2019-05-11T02:23:28.090Z,19.23
2019-05-11T02:25:54.718Z,19.43
2019-05-11T02:28:21.574Z,19.03
2019-05-11T02:30:48.215Z,19.23
2019-05-11T02:33:14.928Z,17.87
2019-05-11T02:35:41.555Z,18.70
2019-05-11T02:38:08.279Z,18.70
2019-05-11T02:40:34.947Z,19.40
2019-05-11T02:43:01.562Z,22.10
2019-05-11T02:45:36.156Z,20.13
2019-05-11T02:48:02.778Z,21.30
2019-05-11T02:50:29.703Z,21.60
2019-05-11T02:52:56.810Z,24.23
2019-05-11T02:55:23.451Z,25.07
2019-05-11T02:57:50.071Z,24.90
2019-05-11T03:00:18.602Z,23.90
2019-05-11T03:02:45.222Z,23.93
2019-05-11T03:05:12.022Z,23.17
2019-05-11T03:07:38.728Z,23.67
2019-05-11T03:10:05.811Z,23.13
2019-05-11T03:12:32.532Z,24.07
2019-05-11T03:14:59.155Z,23.13
2019-05-11T03:17:27.694Z,24.57
2019-05-11T03:19:54.316Z,23.90
2019-05-11T03:22:20.984Z,24.87
2019-05-11T03:24:47.552Z,25.03
2019-05-11T03:27:14.447Z,26.03
2019-05-11T03:30:00.618Z,25.47
2019-05-11T03:32:25.465Z,24.67
2019-05-11T03:34:52.115Z,26.27
2019-05-11T03:37:18.811Z,25.43
2019-05-11T03:39:45.377Z,26.43
2019-05-11T03:42:14.478Z,27.93
2019-05-11T03:44:40.422Z,25.50
2019-05-11T03:47:07.007Z,25.80
2019-05-11T03:49:33.575Z,26.93
2019-05-11T03:52:00.150Z,26.57
2019-05-11T03:54:26.712Z,23.80
2019-05-11T03:56:53.276Z,24.00
2019-05-11T03:59:19.867Z,23.90
2019-05-11T04:01:46.424Z,23.23
2019-05-11T04:04:16.302Z,24.20
2019-05-11T04:06:57.769Z,22.23
2019-05-11T04:09:24.398Z,23.60
2019-05-11T04:11:51.251Z,22.60
2019-05-11T04:14:17.883Z,23.83
2019-05-11T04:16:44.505Z,24.67
2019-05-11T04:19:11.157Z,25.97
2019-05-11T04:21:37.790Z,23.53
2019-05-11T04:24:04.490Z,23.70
2019-05-11T04:26:31.111Z,24.33
2019-05-11T04:28:57.751Z,25.87
2019-05-11T04:31:24.531Z,25.17
2019-05-11T04:33:51.285Z,22.87
2019-05-11T04:36:18.159Z,23.17
2019-05-11T04:38:44.780Z,23.50
2019-05-11T04:41:11.379Z,22.23
2019-05-11T04:43:37.934Z,23.73
2019-05-11T04:46:04.570Z,23.43
2019-05-11T04:48:31.126Z,20.63
2019-05-11T04:50:57.699Z,22.30
2019-05-11T04:53:24.383Z,20.13
2019-05-11T04:55:51.206Z,20.73
2019-05-11T04:58:17.793Z,20.73
2019-05-11T05:00:44.371Z,19.70
2019-05-11T05:03:11.038Z,18.17
2019-05-11T05:05:37.727Z,17.43
2019-05-11T05:08:09.469Z,16.23
2019-05-11T05:10:32.772Z,17.43
2019-05-11T05:13:10.149Z,17.43
2019-05-11T05:15:29.243Z,16.83
2019-05-11T05:17:55.818Z,17.83
2019-05-11T05:20:22.480Z,15.20
2019-05-11T05:22:49.079Z,16.27
2019-05-11T05:25:15.728Z,17.93
2019-05-11T05:27:42.302Z,16.00
2019-05-11T05:30:09.208Z,15.73
2019-05-11T05:32:35.930Z,15.80
2019-05-11T05:35:03.242Z,18.00
2019-05-11T05:37:29.824Z,16.60
2019-05-11T05:39:56.385Z,20.10
2019-05-11T05:42:23.058Z,18.07
2019-05-11T05:44:49.628Z,16.53
2019-05-11T05:47:16.211Z,16.77
2019-05-11T05:49:42.960Z,17.30
2019-05-11T05:52:09.573Z,18.23
2019-05-11T05:54:36.226Z,17.23
2019-05-11T05:57:02.906Z,18.67
2019-05-11T05:59:29.471Z,18.37
2019-05-11T06:01:56.046Z,18.00
2019-05-11T06:04:22.627Z,18.90
2019-05-11T06:06:49.247Z,18.23
2019-05-11T06:09:16.042Z,18.57
2019-05-11T06:11:42.595Z,18.23
2019-05-11T06:14:09.183Z,17.30
2019-05-11T06:16:35.842Z,18.33
2019-05-11T06:19:02.422Z,18.10
2019-05-11T06:21:29.051Z,16.77
2019-05-11T06:23:55.627Z,21.03
2019-05-11T06:26:22.290Z,19.93
2019-05-11T06:28:48.875Z,18.13
2019-05-11T06:31:15.439Z,17.27
2019-05-11T06:33:42.003Z,17.47
2019-05-11T06:36:08.578Z,19.23
2019-05-11T06:38:35.155Z,20.37
2019-05-11T06:41:01.871Z,17.17
2019-05-11T06:43:28.526Z,20.10
2019-05-11T06:45:55.148Z,21.13
2019-05-11T06:48:21.909Z,18.43
2019-05-11T06:50:49.391Z,17.37
2019-05-11T06:53:16.253Z,18.00
2019-05-11T06:55:42.833Z,16.93
2019-05-11T06:58:09.415Z,18.70
2019-05-11T07:00:36.087Z,16.60
2019-05-11T07:03:02.771Z,17.70
2019-05-11T07:05:29.659Z,15.03
2019-05-11T07:07:56.218Z,16.80
2019-05-11T07:10:22.814Z,15.23
2019-05-11T07:12:49.458Z,16.47
2019-05-11T07:15:16.390Z,14.53
2019-05-11T07:17:42.957Z,15.47
2019-05-11T07:20:09.718Z,17.03
2019-05-11T07:22:36.482Z,16.10
2019-05-11T07:25:04.270Z,13.47
2019-05-11T07:27:30.835Z,13.87
2019-05-11T07:29:57.519Z,17.77
2019-05-11T07:32:26.116Z,20.57
2019-05-11T07:34:52.783Z,17.03
2019-05-11T07:37:19.375Z,18.10
2019-05-11T07:39:46.030Z,20.50
2019-05-11T07:42:12.610Z,20.63
2019-05-11T07:44:41.729Z,20.40
2019-05-11T07:47:07.990Z,19.33
2019-05-11T07:49:34.719Z,18.60
2019-05-11T07:52:01.290Z,22.77
2019-05-11T07:54:28.234Z,24.93
2019-05-11T07:56:54.901Z,21.20
2019-05-11T07:59:21.479Z,18.17
2019-05-11T08:01:48.254Z,15.00
2019-05-11T08:04:14.886Z,16.67
2019-05-11T08:06:41.512Z,15.40
2019-05-11T08:09:08.539Z,15.33
2019-05-11T08:11:35.361Z,16.33
2019-05-11T08:14:02.042Z,14.27
2019-05-11T08:16:28.965Z,10.93
2019-05-11T08:18:58.499Z,10.63
2019-05-11T08:21:24.149Z,9.47
2019-05-11T08:23:51.067Z,10.70
2019-05-11T08:26:19.075Z,10.43
2019-05-11T08:28:48.429Z,15.10
2019-05-11T08:31:14.436Z,10.67
2019-05-11T08:33:41.019Z,9.40
2019-05-11T08:36:08.358Z,10.47
2019-05-11T08:38:37.232Z,10.60
2019-05-11T08:41:03.730Z,9.47
2019-05-11T08:43:30.347Z,9.60
2019-05-11T08:45:57.860Z,9.37
2019-05-11T08:48:24.686Z,13.20
2019-05-11T08:50:51.261Z,12.67
2019-05-11T08:53:17.988Z,9.33
2019-05-11T08:55:44.711Z,12.03
2019-05-11T08:58:11.371Z,11.43
2019-05-11T09:00:58.284Z,9.00
2019-05-11T09:03:24.974Z,11.23
2019-05-11T09:05:51.572Z,9.83
2019-05-11T09:08:18.940Z,10.90
2019-05-11T09:10:45.778Z,11.73
2019-05-11T09:13:12.333Z,19.37
2019-05-11T09:15:40.788Z,12.00
2019-05-11T09:18:08.432Z,13.30
2019-05-11T09:20:37.659Z,13.57
2019-05-11T09:23:03.935Z,12.07
2019-05-11T09:25:30.581Z,11.27
2019-05-11T09:27:58.786Z,16.50
2019-05-11T09:30:25.615Z,27.13
2019-05-11T09:32:52.524Z,13.00
2019-05-11T09:35:19.233Z,16.33
2019-05-11T09:37:48.236Z,14.63
2019-05-11T09:40:14.546Z,16.23
2019-05-11T09:42:41.170Z,16.70
2019-05-11T09:45:08.304Z,16.43
2019-05-11T09:47:35.039Z,19.33
2019-05-11T09:50:02.255Z,19.57
2019-05-11T09:52:32.598Z,18.37
2019-05-11T09:54:59.462Z,21.80
2019-05-11T09:57:27.715Z,19.27
2019-05-11T09:59:54.469Z,21.17
2019-05-11T10:02:21.312Z,20.43
2019-05-11T10:04:48.472Z,20.67
2019-05-11T10:07:15.282Z,24.67
2019-05-11T10:09:42.083Z,76.70
2019-05-11T10:12:08.761Z,23.17
2019-05-11T10:14:37.866Z,23.37
2019-05-11T10:17:04.343Z,23.63
2019-05-11T10:19:31.052Z,29.43
2019-05-11T10:21:58.175Z,28.03
2019-05-11T10:24:25.022Z,32.80
2019-05-11T10:26:51.593Z,32.50
2019-05-11T10:29:18.426Z,36.63
2019-05-11T10:31:45.259Z,37.73
2019-05-11T10:34:11.899Z,41.00
2019-05-11T10:36:38.736Z,38.33
2019-05-11T10:39:07.862Z,42.00
2019-05-11T10:41:34.690Z,41.50
2019-05-11T10:44:01.323Z,41.87
2019-05-11T10:46:28.749Z,42.53
2019-05-11T10:48:55.485Z,44.83
2019-05-11T10:51:22.090Z,43.33
2019-05-11T10:53:51.936Z,44.70
2019-05-11T10:56:18.008Z,44.10
2019-05-11T10:58:44.947Z,41.17
2019-05-11T11:01:11.527Z,43.27
2019-05-11T11:03:38.095Z,42.80
2019-05-11T11:06:04.668Z,41.47
2019-05-11T11:08:31.294Z,50.23
2019-05-11T11:10:58.612Z,44.20
2019-05-11T11:13:25.458Z,39.47
2019-05-11T11:15:52.122Z,38.67
2019-05-11T11:18:19.031Z,46.37
2019-05-11T11:20:45.717Z,42.23
2019-05-11T11:23:12.294Z,42.40
2019-05-11T11:25:39.591Z,41.93
2019-05-11T11:28:08.287Z,37.47
2019-05-11T11:30:34.856Z,37.87
2019-05-11T11:33:02.668Z,39.97
2019-05-11T11:35:29.323Z,43.10
2019-05-11T11:37:58.310Z,37.70
2019-05-11T11:40:24.470Z,37.53
2019-05-11T11:42:51.163Z,36.07
2019-05-11T11:45:22.638Z,35.47
2019-05-11T11:47:49.643Z,35.97
2019-05-11T11:50:17.808Z,33.03
2019-05-11T11:52:45.137Z,43.27
2019-05-11T11:55:12.110Z,38.03
2019-05-11T11:57:39.090Z,38.20
2019-05-11T12:00:08.871Z,36.43
2019-05-11T12:02:35.153Z,36.77
2019-05-11T12:05:02.184Z,36.47
2019-05-11T12:07:28.814Z,40.80
2019-05-11T12:09:55.431Z,41.10
2019-05-11T12:12:22.063Z,44.37
2019-05-11T12:14:48.677Z,43.00
2019-05-11T12:17:15.311Z,45.77
2019-05-11T12:19:41.914Z,42.63
2019-05-11T12:22:08.741Z,37.13
2019-05-11T12:24:37.495Z,36.20
2019-05-11T12:27:04.167Z,35.43
2019-05-11T12:29:30.783Z,33.00
2019-05-11T12:31:59.420Z,31.23
2019-05-11T12:34:28.139Z,28.97
2019-05-11T12:36:54.734Z,28.83
2019-05-11T12:39:21.558Z,24.00
2019-05-11T12:41:48.187Z,24.03
2019-05-11T12:44:14.825Z,23.67
2019-05-11T12:46:41.482Z,25.60
2019-05-11T12:49:08.143Z,26.93
2019-05-11T12:51:34.843Z,24.57
2019-05-11T12:54:01.486Z,26.43
2019-05-11T12:56:28.102Z,25.47
2019-05-11T12:58:54.966Z,27.87
2019-05-11T13:01:21.699Z,30.03
2019-05-11T13:03:49.206Z,28.43
2019-05-11T13:06:18.817Z,24.73
2019-05-11T13:08:44.803Z,23.97
2019-05-11T13:11:11.434Z,23.27
2019-05-11T13:13:38.079Z,23.93
2019-05-11T13:16:04.792Z,23.30
2019-05-11T13:18:31.426Z,22.57
2019-05-11T13:20:58.853Z,23.30
2019-05-11T13:23:27.742Z,22.70
2019-05-11T13:25:54.394Z,23.33
2019-05-11T13:28:21.018Z,22.40
2019-05-11T13:30:48.793Z,36.13
2019-05-11T13:33:15.662Z,20.23
2019-05-11T13:36:00.997Z,19.63
2019-05-11T13:38:28.284Z,34.33
2019-05-11T13:40:55.183Z,17.37
2019-05-11T13:43:21.790Z,17.97
2019-05-11T13:46:08.774Z,17.53
2019-05-11T13:48:35.538Z,14.30
2019-05-11T13:51:02.206Z,12.20
2019-05-11T13:53:29.014Z,14.07
2019-05-11T13:55:55.651Z,12.57
2019-05-11T13:58:22.394Z,12.07
2019-05-11T14:00:49.042Z,11.93
2019-05-11T14:03:15.687Z,11.70
2019-05-11T14:05:42.403Z,12.90
2019-05-11T14:08:09.023Z,11.10
2019-05-11T14:10:35.655Z,11.80
2019-05-11T14:13:02.270Z,12.17
2019-05-11T14:15:28.882Z,13.23
2019-05-11T14:18:05.783Z,12.87
2019-05-11T14:20:24.362Z,12.40
2019-05-11T14:22:50.996Z,11.17
2019-05-11T14:25:18.487Z,11.23
2019-05-11T14:27:47.321Z,9.20
2019-05-11T14:30:14.270Z,8.80
2019-05-11T14:32:41.238Z,8.97
2019-05-11T14:35:12.016Z,8.83
2019-05-11T14:37:37.944Z,13.07
2019-05-11T14:40:05.259Z,17.03
2019-05-11T14:42:31.838Z,7.17
2019-05-11T14:44:59.102Z,10.33
2019-05-11T14:47:28.161Z,9.33
2019-05-11T14:49:57.703Z,8.27
2019-05-11T14:52:24.194Z,8.63
2019-05-11T14:54:50.815Z,8.97
2019-05-11T14:57:18.619Z,8.03
2019-05-11T14:59:45.527Z,9.03
2019-05-11T15:02:30.654Z,7.50
2019-05-11T15:04:58.660Z,9.53
2019-05-11T15:07:25.446Z,9.63
2019-05-11T15:09:52.058Z,8.00
2019-05-11T15:12:18.774Z,9.87
2019-05-11T15:14:45.407Z,7.67
2019-05-11T15:17:12.018Z,11.80
2019-05-11T15:19:38.651Z,11.40
2019-05-11T15:22:05.261Z,9.83
2019-05-11T15:24:31.887Z,9.00
2019-05-11T15:26:58.798Z,8.33
2019-05-11T15:29:25.754Z,9.90
2019-05-11T15:31:52.402Z,7.80
2019-05-11T15:34:19.037Z,8.47
2019-05-11T15:36:45.677Z,11.17
2019-05-11T15:39:12.348Z,9.43
2019-05-11T15:41:39.128Z,9.07
2019-05-11T15:44:05.794Z,12.80
2019-05-11T15:46:33.015Z,8.40
2019-05-11T15:49:03.289Z,10.63
2019-05-11T15:51:29.166Z,9.27
2019-05-11T15:53:58.571Z,10.13
2019-05-11T15:56:24.574Z,9.77
2019-05-11T15:58:51.254Z,8.63
2019-05-11T16:01:18.575Z,7.40
2019-05-11T16:03:49.674Z,10.03
2019-05-11T16:06:14.080Z,6.23
2019-05-11T16:08:41.058Z,10.67
2019-05-11T16:11:08.366Z,8.10
2019-05-11T16:13:37.609Z,8.43
2019-05-11T16:16:03.987Z,9.97
2019-05-11T16:18:30.546Z,5.40
2019-05-11T16:20:58.285Z,9.37
2019-05-11T16:23:25.114Z,6.53
2019-05-11T16:25:51.699Z,6.83
2019-05-11T16:28:19.218Z,5.30
2019-05-11T16:30:48.188Z,5.33
2019-05-11T16:33:14.774Z,5.40
2019-05-11T16:35:41.370Z,4.30
2019-05-11T16:38:10.777Z,4.80
2019-05-11T16:40:38.570Z,4.73
2019-05-11T16:43:05.399Z,5.90
2019-05-11T16:45:32.160Z,4.70
2019-05-11T16:47:59.054Z,4.27
2019-05-11T16:50:28.085Z,6.10
2019-05-11T16:52:54.423Z,4.53
2019-05-11T16:55:21.089Z,5.67
2019-05-11T16:57:48.700Z,6.20
2019-05-11T17:00:15.698Z,7.53
2019-05-11T17:02:42.323Z,6.80
2019-05-11T17:05:09.510Z,6.40
2019-05-11T17:07:37.639Z,7.97
2019-05-11T17:10:08.316Z,8.17
2019-05-11T17:12:34.542Z,8.20
2019-05-11T17:15:01.162Z,9.10
2019-05-11T17:17:27.942Z,8.93
2019-05-11T17:19:54.803Z,8.33
2019-05-11T17:22:21.428Z,8.40
2019-05-11T17:24:48.518Z,9.43
2019-05-11T17:27:15.163Z,6.70
2019-05-11T17:29:41.978Z,76.20
2019-05-11T17:32:08.667Z,18.20
2019-05-11T17:34:35.426Z,8.00
2019-05-11T17:37:02.070Z,7.60
2019-05-11T17:39:28.760Z,7.77
2019-05-11T17:41:55.309Z,7.90
2019-05-11T17:44:21.870Z,8.43
2019-05-11T17:46:48.499Z,12.77
2019-05-11T17:49:15.153Z,10.17
2019-05-11T17:51:41.782Z,10.17
2019-05-11T17:54:11.139Z,9.87
2019-05-11T17:56:38.767Z,10.50
2019-05-11T17:59:07.862Z,13.50
2019-05-11T18:01:34.042Z,10.60
2019-05-11T18:04:00.616Z,12.97
2019-05-11T18:06:27.198Z,13.83
2019-05-11T18:08:53.786Z,13.50
2019-05-11T18:11:20.406Z,13.17
2019-05-11T18:13:48.207Z,10.83
2019-05-11T18:16:15.347Z,11.63
2019-05-11T18:18:41.940Z,10.40
2019-05-11T18:21:08.798Z,9.40
2019-05-11T18:23:35.466Z,9.67
2019-05-11T18:26:02.198Z,10.90
2019-05-11T18:28:29.307Z,9.77
2019-05-11T18:30:58.061Z,10.20
2019-05-11T18:33:24.673Z,10.40
2019-05-11T18:35:51.426Z,7.90
2019-05-11T18:38:18.054Z,12.70
2019-05-11T18:40:44.942Z,9.33
2019-05-11T18:43:11.574Z,39.70
2019-05-11T18:45:38.449Z,15.27
2019-05-11T18:48:05.256Z,10.77
2019-05-11T18:50:33.932Z,7.20
2019-05-11T18:53:00.602Z,9.37
2019-05-11T18:55:28.134Z,8.43
2019-05-11T18:57:54.896Z,7.57
2019-05-11T19:00:21.512Z,6.60
2019-05-11T19:02:49.421Z,6.23
2019-05-11T19:05:17.996Z,4.97
2019-05-11T19:07:44.966Z,5.97
2019-05-11T19:10:11.701Z,5.63
2019-05-11T19:12:38.329Z,4.50
2019-05-11T19:15:07.775Z,5.87
2019-05-11T19:17:34.278Z,8.00
2019-05-11T19:20:00.909Z,6.13
2019-05-11T19:22:28.919Z,4.43
2019-05-11T19:24:57.757Z,7.73
2019-05-11T19:27:24.410Z,4.77
2019-05-11T19:29:51.038Z,7.50
2019-05-11T19:32:19.193Z,5.23
2019-05-11T19:34:47.781Z,5.40
2019-05-11T19:37:14.540Z,12.07
2019-05-11T19:39:41.199Z,5.33
2019-05-11T19:42:07.966Z,4.93
2019-05-11T19:44:34.642Z,4.47
2019-05-11T19:47:01.291Z,4.57
2019-05-11T19:49:28.039Z,5.97
2019-05-11T19:51:54.851Z,5.03
2019-05-11T19:54:21.486Z,3.53
2019-05-11T19:56:48.131Z,4.60
2019-05-11T19:59:14.767Z,7.40
2019-05-11T20:01:41.402Z,7.50
2019-05-11T20:04:08.322Z,5.87
2019-05-11T20:06:35.087Z,5.17
2019-05-11T20:09:01.739Z,3.70
2019-05-11T20:11:28.350Z,5.53
2019-05-11T20:13:55.079Z,4.50
2019-05-11T20:16:21.729Z,4.50
2019-05-11T20:18:48.330Z,4.00
2019-05-11T20:21:19.441Z,3.77
2019-05-11T20:23:43.478Z,5.37
2019-05-11T20:26:10.106Z,4.53
2019-05-11T20:28:37.815Z,4.33
2019-05-11T20:31:04.778Z,5.80
2019-05-11T20:33:31.399Z,5.67
2019-05-11T20:35:58.240Z,4.57
2019-05-11T20:38:25.066Z,6.33
2019-05-11T20:40:51.718Z,7.23
2019-05-11T20:43:18.714Z,4.67
2019-05-11T20:45:45.471Z,6.97
2019-05-11T20:48:12.110Z,3.43
2019-05-11T20:50:38.845Z,5.30
2019-05-11T20:53:05.462Z,5.40
2019-05-11T20:55:32.084Z,6.07
2019-05-11T20:57:58.799Z,6.27
2019-05-11T21:00:27.779Z,4.80
2019-05-11T21:03:20.207Z,4.23
2019-05-11T21:05:48.236Z,3.43
2019-05-11T21:08:17.558Z,4.10
2019-05-11T21:10:43.767Z,4.33
2019-05-11T21:13:10.402Z,6.97
2019-05-11T21:15:38.452Z,3.03
2019-05-11T21:18:07.751Z,4.40
2019-05-11T21:20:33.867Z,4.27
2019-05-11T21:23:00.548Z,4.00
2019-05-11T21:25:28.762Z,8.90
2019-05-11T21:27:57.754Z,5.80
2019-05-11T21:30:24.188Z,4.07
2019-05-11T21:32:50.790Z,5.73
2019-05-11T21:35:19.302Z,4.60
2019-05-11T21:37:48.585Z,2.87
2019-05-11T21:40:14.694Z,9.27
2019-05-11T21:42:41.317Z,7.43
2019-05-11T21:45:09.487Z,8.20
2019-05-11T21:47:38.612Z,4.80
2019-05-11T21:50:05.992Z,4.50
2019-05-11T21:52:34.079Z,4.97
2019-05-11T21:55:00.715Z,5.83
2019-05-11T21:57:27.874Z,5.17
2019-05-11T21:59:55.027Z,4.27
2019-05-11T22:02:21.773Z,6.43
2019-05-11T22:04:48.529Z,4.30
2019-05-11T22:07:15.090Z,4.90
2019-05-11T22:09:41.835Z,9.30
2019-05-11T22:12:10.888Z,4.90
2019-05-11T22:14:38.456Z,4.60
2019-05-11T22:17:07.699Z,8.83
2019-05-11T22:19:33.680Z,6.27
2019-05-11T22:22:00.512Z,5.73
2019-05-11T22:24:28.301Z,9.20
2019-05-11T22:26:54.988Z,5.70
2019-05-11T22:29:21.554Z,9.37
2019-05-11T22:31:48.692Z,7.60
2019-05-11T22:34:17.698Z,3.50
2019-05-11T22:36:44.275Z,10.30
2019-05-11T22:39:10.887Z,5.13
2019-05-11T22:41:39.531Z,6.13
2019-05-11T22:44:07.843Z,7.10
2019-05-11T22:46:34.510Z,5.43
2019-05-11T22:49:01.302Z,4.70
2019-05-11T22:51:28.794Z,7.10
2019-05-11T22:53:55.667Z,4.33
2019-05-11T22:56:22.254Z,6.93
2019-05-11T22:58:50.009Z,5.03
2019-05-11T23:01:17.931Z,4.97
2019-05-11T23:03:44.704Z,5.07
2019-05-11T23:06:11.269Z,4.73
2019-05-11T23:08:37.830Z,8.13
2019-05-11T23:11:04.402Z,7.20
2019-05-11T23:13:30.967Z,5.97
2019-05-11T23:15:58.416Z,6.53
2019-05-11T23:18:25.326Z,4.53
2019-05-11T23:20:51.915Z,4.27
2019-05-11T23:23:18.478Z,5.53
2019-05-11T23:25:45.057Z,4.63
2019-05-11T23:28:11.618Z,7.07
2019-05-11T23:30:38.893Z,7.03
2019-05-11T23:33:07.799Z,4.47
2019-05-11T23:35:34.226Z,4.70
2019-05-11T23:38:01.009Z,5.47
2019-05-11T23:40:28.487Z,5.03
2019-05-11T23:42:57.722Z,5.17
2019-05-11T23:45:23.734Z,5.80
2019-05-11T23:47:50.318Z,7.47
2019-05-11T23:50:18.952Z,5.50
2019-05-11T23:52:48.525Z,6.57
2019-05-11T23:55:14.707Z,9.30
2019-05-11T23:57:41.339Z,7.37
